Time;durP1;ratioP1;P1;durP2;ratioP2;P2;SDS_P1;SDS_P2;PMS_P1;PMS_P2;Temp;Humidity;BMP_temperature;BMP_pressure;BME280_temperature;BME280_humidity;BME280_pressure;Samples;Min_cycle;Max_cycle;Signal;HPM_P1;HPM_P2
2022/01/04 00:01:22;;;;;;;32.08;8.73;;;8.00;99.90;;;;;;5112359;27;20466;-77
2022/01/04 00:03:48;;;;;;;27.90;9.75;;;8.10;99.90;;;;;;5083453;28;20036;-77
2022/01/04 00:06:14;;;;;;;23.15;9.23;;;8.10;99.90;;;;;;5087981;28;20115;-76
2022/01/04 00:08:40;;;;;;;20.40;8.57;;;8.10;99.90;;;;;;5072504;28;20036;-77
2022/01/04 00:11:16;;;;;;;29.58;9.07;;;8.10;99.90;;;;;;5082712;28;20126;-76
2022/01/04 00:13:43;;;;;;;19.38;7.97;;;8.20;99.90;;;;;;5081630;28;20463;-77
2022/01/04 00:16:10;;;;;;;26.27;9.30;;;8.10;99.90;;;;;;5082096;28;20047;-75
2022/01/04 00:18:37;;;;;;;24.70;7.50;;;8.20;99.90;;;;;;5113944;27;20432;-76
2022/01/04 00:21:03;;;;;;;26.95;8.15;;;8.20;99.90;;;;;;5084430;28;20433;-77
2022/01/04 00:23:30;;;;;;;25.48;8.50;;;8.20;99.90;;;;;;5088792;28;20047;-76
2022/01/04 00:25:56;;;;;;;25.58;8.18;;;8.20;99.90;;;;;;5086702;28;20058;-77
2022/01/04 00:28:21;;;;;;;27.20;7.57;;;8.20;99.90;;;;;;5084346;28;20127;-77
2022/01/04 00:30:47;;;;;;;22.73;7.75;;;8.20;99.90;;;;;;5087058;28;20140;-76
2022/01/04 00:33:14;;;;;;;23.27;7.95;;;8.20;99.90;;;;;;5089437;28;20036;-76
2022/01/04 00:35:40;;;;;;;27.67;8.07;;;8.20;99.90;;;;;;5086426;28;20585;-77
2022/01/04 00:38:06;;;;;;;26.40;8.13;;;8.20;99.90;;;;;;5085753;28;20067;-76
2022/01/04 00:40:32;;;;;;;28.98;8.75;;;8.20;99.90;;;;;;5088173;28;20128;-77
2022/01/04 00:42:58;;;;;;;23.00;7.88;;;8.20;99.90;;;;;;5088487;28;20048;-77
2022/01/04 00:45:25;;;;;;;22.00;7.22;;;8.20;99.90;;;;;;5089064;28;20037;-77
2022/01/04 00:50:21;;;;;;;26.45;7.22;;;8.20;99.90;;;;;;5089351;28;20201;-77
2022/01/04 00:52:46;;;;;;;31.05;7.05;;;8.20;99.90;;;;;;5085771;28;20088;-77
2022/01/04 00:55:12;;;;;;;30.38;7.75;;;8.20;99.90;;;;;;5116805;27;20040;-76
2022/01/04 00:57:38;;;;;;;23.30;7.75;;;8.30;99.90;;;;;;5073433;28;20506;-76
2022/01/04 01:00:05;;;;;;;22.95;7.32;;;8.20;99.90;;;;;;5088410;28;20028;-76
2022/01/04 01:02:30;;;;;;;25.00;7.88;;;8.30;99.90;;;;;;5082201;28;20212;-77
2022/01/04 01:04:56;;;;;;;25.63;8.07;;;8.30;99.90;;;;;;5086519;28;20075;-77
2022/01/04 01:07:22;;;;;;;25.73;8.25;;;8.30;99.90;;;;;;5084473;28;20500;-76
2022/01/04 01:10:13;;;;;;;23.48;8.10;;;8.30;99.90;;;;;;5087121;28;20073;-77
2022/01/04 01:12:39;;;;;;;22.15;8.23;;;8.30;99.90;;;;;;5086351;28;20126;-77
2022/01/04 01:15:06;;;;;;;29.92;8.23;;;8.40;99.90;;;;;;5089633;28;20144;-76
2022/01/04 01:17:32;;;;;;;26.08;8.70;;;8.30;99.90;;;;;;5090281;28;20113;-76
2022/01/04 01:19:59;;;;;;;29.38;8.82;;;8.30;99.90;;;;;;5085403;28;20101;-77
2022/01/04 01:22:24;;;;;;;22.48;9.35;;;8.30;99.90;;;;;;5089707;28;20122;-76
2022/01/04 01:24:50;;;;;;;27.20;9.35;;;8.30;99.90;;;;;;5086872;28;20134;-76
2022/01/04 01:27:15;;;;;;;26.33;9.63;;;8.30;99.90;;;;;;5084593;28;20051;-77
2022/01/04 01:29:41;;;;;;;27.27;8.57;;;8.30;99.90;;;;;;5085430;28;20038;-77
2022/01/04 01:32:07;;;;;;;20.95;8.02;;;8.30;99.90;;;;;;5085963;28;20044;-77
2022/01/04 01:34:33;;;;;;;26.88;8.48;;;8.30;99.90;;;;;;5087928;28;20677;-76
2022/01/04 01:36:58;;;;;;;27.73;9.30;;;8.30;99.90;;;;;;5082847;28;20040;-76
2022/01/04 01:39:24;;;;;;;30.27;10.45;;;8.30;99.90;;;;;;5085836;28;20040;-77
2022/01/04 01:41:49;;;;;;;31.60;8.98;;;8.30;99.90;;;;;;5087919;28;20467;-77
2022/01/04 01:44:15;;;;;;;28.80;9.38;;;8.20;99.90;;;;;;5071112;28;20100;-77
2022/01/04 01:46:42;;;;;;;23.92;8.80;;;8.20;99.90;;;;;;5089257;28;20532;-77
2022/01/04 01:49:07;;;;;;;24.95;8.68;;;8.20;99.90;;;;;;5083194;28;20527;-77
2022/01/04 01:51:33;;;;;;;27.15;8.70;;;8.20;99.90;;;;;;5085656;28;20119;-77
2022/01/04 01:53:59;;;;;;;24.80;10.48;;;8.20;99.90;;;;;;5117815;27;20132;-77
2022/01/04 01:56:26;;;;;;;24.23;9.75;;;8.20;99.90;;;;;;5118444;27;20036;-76
2022/01/04 01:58:52;;;;;;;31.27;10.38;;;8.20;99.90;;;;;;5112629;27;20043;-76
2022/01/04 02:01:17;;;;;;;24.38;8.68;;;8.20;99.90;;;;;;5091233;28;20047;-76
2022/01/04 02:03:43;;;;;;;27.10;11.38;;;8.20;99.90;;;;;;5089782;28;20040;-76
2022/01/04 02:06:10;;;;;;;24.63;10.40;;;8.20;99.90;;;;;;5086904;28;20063;-77
2022/01/04 02:08:36;;;;;;;20.88;9.65;;;8.20;99.90;;;;;;5083272;28;20478;-77
2022/01/04 02:11:02;;;;;;;25.27;9.90;;;8.10;99.90;;;;;;5085789;28;20047;-76
2022/01/04 02:13:28;;;;;;;22.23;10.07;;;8.10;99.90;;;;;;5081742;28;20040;-77
2022/01/04 02:15:57;;;;;;;26.85;10.32;;;8.10;99.90;;;;;;5083609;28;20051;-77
2022/01/04 02:18:23;;;;;;;28.30;11.45;;;8.10;99.90;;;;;;5082455;28;20123;-77
2022/01/04 02:20:49;;;;;;;29.75;10.38;;;8.00;99.90;;;;;;5086740;28;20439;-76
2022/01/04 02:23:15;;;;;;;28.77;11.38;;;8.10;99.90;;;;;;5115313;27;20053;-76
2022/01/04 02:25:41;;;;;;;30.13;12.15;;;8.00;99.90;;;;;;5101938;27;20052;-76
2022/01/04 02:28:06;;;;;;;25.45;9.95;;;8.40;99.90;;;;;;5083953;28;20051;-76
2022/01/04 02:30:32;;;;;;;27.20;10.98;;;8.00;99.90;;;;;;5118374;27;20064;-76
2022/01/04 02:32:59;;;;;;;33.03;12.40;;;8.00;99.90;;;;;;5087049;28;20089;-76
2022/01/04 02:35:28;;;;;;;26.60;11.65;;;8.00;99.90;;;;;;5089744;28;20027;-76
2022/01/04 02:37:59;;;;;;;32.40;12.38;;;8.00;99.90;;;;;;5083854;28;20089;-76
2022/01/04 02:40:25;;;;;;;23.13;11.75;;;8.00;99.90;;;;;;5082893;28;20047;-77
2022/01/04 02:42:52;;;;;;;28.77;12.45;;;8.00;99.90;;;;;;5082337;28;20123;-77
2022/01/04 02:45:18;;;;;;;26.33;12.45;;;8.00;99.90;;;;;;5080078;28;20108;-77
2022/01/04 02:47:44;;;;;;;34.45;12.15;;;8.00;99.90;;;;;;5089057;28;20478;-77
2022/01/04 02:50:10;;;;;;;27.95;11.88;;;7.90;99.90;;;;;;5081713;28;20052;-77
2022/01/04 02:52:36;;;;;;;28.75;12.10;;;8.00;99.90;;;;;;5086294;28;21665;-77
2022/01/04 02:55:09;;;;;;;26.52;11.60;;;7.90;99.90;;;;;;5084889;28;20036;-76
2022/01/04 02:57:34;;;;;;;24.67;13.10;;;8.00;99.90;;;;;;5086335;28;20040;-77
2022/01/04 03:00:00;;;;;;;31.67;13.55;;;8.00;99.90;;;;;;5086166;28;20121;-77
2022/01/04 03:02:26;;;;;;;25.35;13.02;;;8.00;99.90;;;;;;5115471;27;20058;-77
2022/01/04 03:04:52;;;;;;;29.02;13.80;;;8.00;99.90;;;;;;5086405;28;20035;-77
2022/01/04 03:07:18;;;;;;;29.23;13.30;;;8.10;99.90;;;;;;5082407;28;20032;-77
2022/01/04 03:09:43;;;;;;;31.75;14.63;;;8.10;99.90;;;;;;5083859;28;20129;-77
2022/01/04 03:12:09;;;;;;;30.25;14.30;;;8.10;99.90;;;;;;5083637;28;20075;-77
2022/01/04 03:14:35;;;;;;;27.73;14.57;;;8.10;99.90;;;;;;5086161;28;20805;-76
2022/01/04 03:17:02;;;;;;;25.17;14.52;;;8.10;99.90;;;;;;5086543;28;20081;-77
2022/01/04 03:19:27;;;;;;;35.10;15.32;;;8.10;99.90;;;;;;5085351;28;20568;-77
2022/01/04 03:21:53;;;;;;;35.45;15.23;;;8.10;99.90;;;;;;5083184;28;20086;-77
2022/01/04 03:24:18;;;;;;;30.17;14.93;;;8.10;99.90;;;;;;5087069;28;20063;-76
2022/01/04 03:26:44;;;;;;;34.15;16.17;;;8.10;99.90;;;;;;5085481;28;20032;-77
2022/01/04 03:29:13;;;;;;;36.45;15.15;;;8.10;99.90;;;;;;5090988;28;20123;-77
2022/01/04 03:31:39;;;;;;;29.80;14.15;;;8.10;99.90;;;;;;5083141;28;20048;-77
2022/01/04 03:34:05;;;;;;;31.02;14.88;;;8.00;99.90;;;;;;5095895;28;20131;-77
2022/01/04 03:36:32;;;;;;;34.10;14.25;;;8.10;99.90;;;;;;5085428;28;20443;-76
2022/01/04 03:38:58;;;;;;;31.83;16.10;;;8.10;99.90;;;;;;5081560;28;20055;-76
2022/01/04 03:41:26;;;;;;;28.50;15.95;;;8.20;99.90;;;;;;5080271;28;20040;-76
2022/01/04 03:43:51;;;;;;;22.67;14.32;;;8.10;99.90;;;;;;5085325;28;20052;-77
2022/01/04 03:46:18;;;;;;;30.73;15.55;;;8.20;99.90;;;;;;5083222;28;20051;-76
2022/01/04 03:48:45;;;;;;;28.67;15.18;;;8.20;99.90;;;;;;5087163;28;20121;-76
2022/01/04 03:51:11;;;;;;;34.83;15.57;;;8.20;99.90;;;;;;5086106;28;20063;-76
2022/01/04 03:53:37;;;;;;;25.33;14.45;;;8.20;99.90;;;;;;5089049;28;20029;-77
2022/01/04 03:56:03;;;;;;;30.77;14.55;;;8.30;99.90;;;;;;5089160;28;20533;-77
2022/01/04 03:58:30;;;;;;;26.92;15.18;;;8.20;99.90;;;;;;5087595;28;20082;-77
2022/01/04 04:00:56;;;;;;;31.00;14.63;;;8.30;99.90;;;;;;5095729;28;20043;-77
2022/01/04 04:03:22;;;;;;;31.25;14.93;;;8.30;99.90;;;;;;5090889;28;20043;-77
2022/01/04 04:05:49;;;;;;;31.25;15.38;;;8.30;99.90;;;;;;5086433;28;20040;-76
2022/01/04 04:08:15;;;;;;;29.52;13.75;;;8.30;99.90;;;;;;5088503;28;20119;-76
2022/01/04 04:10:40;;;;;;;30.83;15.32;;;8.20;99.90;;;;;;5083428;28;20044;-76
2022/01/04 04:13:06;;;;;;;26.20;14.32;;;8.30;99.90;;;;;;5087411;28;20039;-76
2022/01/04 04:15:32;;;;;;;25.20;14.52;;;8.30;99.90;;;;;;5090102;28;20102;-77
2022/01/04 04:17:57;;;;;;;27.55;13.88;;;8.30;99.90;;;;;;5085892;28;20048;-76
2022/01/04 04:20:23;;;;;;;32.45;14.70;;;8.30;99.90;;;;;;5119178;27;21855;-77
2022/01/04 04:22:49;;;;;;;29.35;14.20;;;8.30;99.90;;;;;;5089576;28;20066;-76
2022/01/04 04:25:15;;;;;;;30.95;14.38;;;8.30;99.90;;;;;;5114265;27;20049;-76
2022/01/04 04:27:40;;;;;;;31.33;14.05;;;8.30;99.90;;;;;;5069251;28;20494;-76
2022/01/04 04:30:07;;;;;;;31.00;14.48;;;8.30;99.90;;;;;;5086379;28;20039;-76
2022/01/04 04:32:32;;;;;;;32.70;14.80;;;8.30;99.90;;;;;;5087849;28;20066;-76
2022/01/04 04:34:58;;;;;;;31.52;14.88;;;8.30;99.90;;;;;;5089433;28;20939;-76
2022/01/04 04:37:24;;;;;;;31.83;15.82;;;8.30;99.90;;;;;;5094493;28;20085;-76
2022/01/04 04:39:50;;;;;;;27.98;15.77;;;8.30;99.90;;;;;;5118170;27;20043;-76
2022/01/04 04:42:15;;;;;;;33.88;15.85;;;8.30;99.90;;;;;;5089621;28;20631;-76
2022/01/04 04:44:41;;;;;;;32.92;16.55;;;8.30;99.90;;;;;;5086077;28;20399;-76
2022/01/04 04:47:07;;;;;;;38.10;17.08;;;8.30;99.90;;;;;;5087523;28;20066;-77
2022/01/04 04:49:32;;;;;;;33.70;16.65;;;8.30;99.90;;;;;;5089526;28;20098;-76
2022/01/04 04:51:59;;;;;;;37.75;18.02;;;8.30;99.90;;;;;;5090298;28;20167;-76
2022/01/04 04:54:26;;;;;;;33.20;17.05;;;8.20;99.90;;;;;;5086288;28;20535;-74
2022/01/04 04:56:51;;;;;;;37.65;17.33;;;8.20;99.90;;;;;;5116026;27;20696;-74
2022/01/04 04:59:17;;;;;;;30.35;16.80;;;8.30;99.90;;;;;;5083819;28;20035;-74
2022/01/04 05:01:42;;;;;;;42.03;18.30;;;8.30;99.90;;;;;;5080993;28;20131;-75
2022/01/04 05:04:08;;;;;;;34.40;17.48;;;8.30;99.90;;;;;;5091321;28;20051;-74
2022/01/04 05:06:33;;;;;;;32.75;17.48;;;8.30;99.90;;;;;;5086710;28;20075;-74
2022/01/04 05:08:59;;;;;;;40.63;17.42;;;8.30;99.90;;;;;;5088650;28;20043;-74
2022/01/04 05:11:26;;;;;;;33.05;17.23;;;8.30;99.90;;;;;;5088898;28;20043;-74
2022/01/04 05:13:52;;;;;;;29.83;17.13;;;8.30;99.90;;;;;;5087765;28;20111;-74
2022/01/04 05:16:17;;;;;;;38.03;17.90;;;8.20;99.90;;;;;;5111150;27;20134;-74
2022/01/04 05:18:43;;;;;;;31.92;17.08;;;8.20;99.90;;;;;;5083921;28;20025;-74
2022/01/04 05:21:08;;;;;;;25.30;16.70;;;8.10;99.90;;;;;;5085394;28;20126;-74
2022/01/04 05:23:34;;;;;;;25.75;15.18;;;8.20;99.90;;;;;;5082640;28;20051;-74
2022/01/04 05:26:00;;;;;;;36.53;15.73;;;8.10;99.90;;;;;;5088378;28;20044;-74
2022/01/04 05:28:25;;;;;;;26.67;16.08;;;8.10;99.90;;;;;;5082380;28;20036;-74
2022/01/04 05:30:51;;;;;;;24.48;15.30;;;8.10;99.90;;;;;;5084613;28;20044;-74
2022/01/04 05:33:17;;;;;;;31.67;16.45;;;8.10;99.90;;;;;;5087198;28;20041;-74
2022/01/04 05:35:42;;;;;;;30.00;15.68;;;8.10;99.90;;;;;;5085243;28;20387;-74
2022/01/04 05:38:08;;;;;;;30.23;14.82;;;8.10;99.90;;;;;;5090481;28;20425;-74
2022/01/04 05:40:34;;;;;;;27.85;15.82;;;8.10;99.90;;;;;;5087747;28;20039;-74
2022/01/04 05:43:00;;;;;;;34.67;17.38;;;8.10;99.90;;;;;;5088085;28;20596;-74
2022/01/04 05:45:26;;;;;;;28.65;15.55;;;8.10;99.90;;;;;;5086579;28;20063;-74
2022/01/04 05:47:51;;;;;;;29.55;16.13;;;8.10;99.90;;;;;;5095063;27;20040;-74
2022/01/04 05:50:17;;;;;;;25.38;15.93;;;8.10;99.90;;;;;;5081231;28;20434;-74
2022/01/04 05:52:43;;;;;;;30.55;16.75;;;8.10;99.90;;;;;;5113018;27;20044;-74
2022/01/04 05:55:09;;;;;;;31.60;16.55;;;8.10;99.90;;;;;;5080035;28;20075;-74
2022/01/04 05:57:34;;;;;;;34.10;16.98;;;8.10;99.90;;;;;;5078415;28;20621;-74
2022/01/04 06:00:00;;;;;;;34.15;16.65;;;8.10;99.90;;;;;;5077518;28;20128;-74
2022/01/04 06:02:26;;;;;;;29.08;16.02;;;8.10;99.90;;;;;;5082323;28;20043;-74
2022/01/04 06:04:52;;;;;;;33.38;16.77;;;8.00;99.90;;;;;;5076254;28;20044;-74
2022/01/04 06:07:18;;;;;;;30.08;16.75;;;8.10;99.90;;;;;;5080103;28;20044;-74
2022/01/04 06:09:49;;;;;;;35.70;17.50;;;8.10;99.90;;;;;;5083262;28;20047;-74
2022/01/04 06:15:14;;;;;;;41.38;18.50;;;8.10;99.90;;;;;;5062385;28;20167;-74
2022/01/04 06:17:46;;;;;;;34.58;17.10;;;8.10;99.90;;;;;;5087330;28;20047;-74
2022/01/04 06:20:15;;;;;;;31.17;15.32;;;8.20;99.90;;;;;;5079198;28;20123;-74
2022/01/04 06:22:41;;;;;;;29.77;14.45;;;8.10;99.90;;;;;;5111998;27;20109;-74
2022/01/04 06:25:14;;;;;;;26.98;15.32;;;8.20;99.90;;;;;;5078037;28;20433;-74
2022/01/04 06:27:49;;;;;;;25.92;14.65;;;8.20;99.90;;;;;;5082392;28;20043;-74
2022/01/04 06:30:21;;;;;;;26.67;14.63;;;8.10;99.90;;;;;;5083112;28;20086;-74
2022/01/04 06:32:47;;;;;;;24.00;14.30;;;8.10;99.90;;;;;;5085156;28;20512;-74
2022/01/04 06:35:13;;;;;;;25.65;15.25;;;8.20;99.90;;;;;;5080566;28;20111;-74
2022/01/04 06:37:41;;;;;;;27.05;15.05;;;8.20;99.90;;;;;;5080886;28;20413;-74
2022/01/04 06:40:08;;;;;;;25.63;16.38;;;8.10;99.90;;;;;;5081750;28;20033;-74
2022/01/04 06:42:33;;;;;;;32.78;15.55;;;8.10;99.90;;;;;;5083189;28;20045;-75
2022/01/04 06:44:59;;;;;;;31.10;16.88;;;8.20;99.90;;;;;;5086344;28;20040;-74
2022/01/04 06:47:24;;;;;;;31.85;16.40;;;8.10;99.90;;;;;;5090750;28;20047;-74
2022/01/04 06:49:50;;;;;;;24.95;16.27;;;8.10;99.90;;;;;;5088334;28;20050;-74
2022/01/04 06:52:15;;;;;;;25.15;15.82;;;8.10;99.90;;;;;;5084536;28;20048;-74
2022/01/04 06:54:41;;;;;;;27.88;16.63;;;8.00;99.90;;;;;;5074381;28;20040;-74
2022/01/04 06:57:07;;;;;;;28.02;17.83;;;8.10;99.90;;;;;;5084405;28;20483;-74
2022/01/04 06:59:32;;;;;;;28.77;16.67;;;8.00;99.90;;;;;;5087945;28;20495;-74
2022/01/04 07:02:00;;;;;;;27.30;15.98;;;8.00;99.90;;;;;;5083107;28;20050;-74
2022/01/04 07:04:25;;;;;;;27.88;18.25;;;8.00;99.90;;;;;;5085998;28;20075;-74
2022/01/04 07:06:51;;;;;;;26.42;19.05;;;8.00;99.90;;;;;;5082321;28;20473;-74
2022/01/04 07:09:17;;;;;;;30.83;20.35;;;8.00;99.90;;;;;;5087595;28;20032;-74
2022/01/04 07:11:43;;;;;;;34.70;20.95;;;8.00;99.90;;;;;;5084382;28;20123;-74
2022/01/04 07:14:08;;;;;;;36.15;21.92;;;8.00;99.90;;;;;;5084970;28;20110;-74
2022/01/04 07:16:34;;;;;;;38.85;22.20;;;8.00;99.90;;;;;;5071687;28;20406;-74
2022/01/04 07:19:00;;;;;;;38.45;22.83;;;8.00;99.90;;;;;;5080676;28;20032;-74
2022/01/04 07:21:26;;;;;;;29.05;19.35;;;8.00;99.90;;;;;;5074743;28;20075;-74
2022/01/04 07:23:54;;;;;;;27.73;18.58;;;8.00;99.90;;;;;;5082438;28;20402;-74
2022/01/04 07:26:21;;;;;;;30.40;18.38;;;8.10;99.90;;;;;;5076134;28;20501;-74
2022/01/04 07:28:48;;;;;;;24.15;16.20;;;8.00;99.90;;;;;;5076735;28;20040;-74
2022/01/04 07:31:14;;;;;;;17.80;15.32;;;8.00;99.90;;;;;;5078864;28;20047;-76
2022/01/04 07:33:40;;;;;;;21.15;15.40;;;8.00;99.90;;;;;;5084237;28;20985;-76
2022/01/04 07:36:07;;;;;;;24.13;15.75;;;8.00;99.90;;;;;;5081849;28;20040;-76
2022/01/04 07:38:37;;;;;;;19.48;15.07;;;8.10;99.90;;;;;;5083093;28;20082;-76
2022/01/04 07:41:04;;;;;;;21.88;15.02;;;8.10;99.90;;;;;;5083643;28;20033;-76
2022/01/04 07:43:30;;;;;;;23.65;16.88;;;8.10;99.90;;;;;;5082112;28;20646;-76
2022/01/04 07:45:55;;;;;;;30.38;19.65;;;8.00;99.90;;;;;;5083351;28;20044;-76
2022/01/04 07:48:21;;;;;;;31.63;20.13;;;8.10;99.90;;;;;;5069126;28;20037;-76
2022/01/04 07:50:47;;;;;;;31.67;20.33;;;8.00;99.90;;;;;;5076605;28;20376;-76
2022/01/04 07:53:14;;;;;;;32.17;22.33;;;8.10;99.90;;;;;;5085386;28;20040;-76
2022/01/04 07:55:40;;;;;;;36.70;21.65;;;8.10;99.90;;;;;;5083899;28;20155;-76
2022/01/04 07:58:05;;;;;;;35.28;21.95;;;8.10;99.90;;;;;;5081561;28;20469;-76
2022/01/04 08:00:31;;;;;;;33.42;22.17;;;8.10;99.90;;;;;;5082186;28;21671;-76
2022/01/04 08:02:57;;;;;;;32.70;22.83;;;8.10;99.90;;;;;;5081624;28;20123;-76
2022/01/04 08:05:23;;;;;;;33.30;22.13;;;8.00;99.90;;;;;;5082592;28;20044;-77
2022/01/04 08:07:50;;;;;;;36.15;19.88;;;8.10;99.90;;;;;;5081942;28;20036;-76
2022/01/04 08:10:16;;;;;;;35.15;21.50;;;8.00;99.90;;;;;;5080519;28;20098;-76
2022/01/04 08:12:42;;;;;;;27.63;20.17;;;8.00;99.90;;;;;;5079266;28;20076;-76
2022/01/04 08:15:08;;;;;;;24.88;18.08;;;8.00;99.90;;;;;;5078868;28;20117;-76
2022/01/04 08:17:36;;;;;;;31.05;19.05;;;8.00;99.90;;;;;;5081011;28;20086;-76
2022/01/04 08:20:03;;;;;;;31.13;18.70;;;8.00;99.90;;;;;;5079621;28;20533;-76
2022/01/04 08:22:32;;;;;;;27.55;18.02;;;8.00;99.90;;;;;;5112202;27;20051;-77
2022/01/04 08:25:08;;;;;;;26.58;18.02;;;8.00;99.90;;;;;;5082008;28;20119;-76
2022/01/04 08:27:34;;;;;;;26.20;18.40;;;8.00;99.90;;;;;;5083548;28;20048;-76
2022/01/04 08:30:00;;;;;;;26.77;19.73;;;8.00;99.90;;;;;;5081381;28;20028;-76
2022/01/04 08:32:26;;;;;;;25.85;18.70;;;8.00;99.90;;;;;;5078297;28;20487;-76
2022/01/04 08:34:51;;;;;;;29.27;19.02;;;8.00;99.90;;;;;;5078583;28;20085;-76
2022/01/04 08:37:18;;;;;;;27.50;18.17;;;8.00;99.90;;;;;;5079660;28;20032;-77
2022/01/04 08:39:44;;;;;;;24.35;17.63;;;8.00;99.90;;;;;;5081026;28;20117;-77
2022/01/04 08:42:09;;;;;;;28.80;17.85;;;8.00;99.90;;;;;;5077771;28;20455;-76
2022/01/04 08:44:39;;;;;;;20.55;10.25;;;8.10;99.90;;;;;;5114606;27;20047;-76
2022/01/04 08:47:07;;;;;;;13.95;6.95;;;8.10;99.90;;;;;;5078672;28;20721;-76
2022/01/04 08:49:34;;;;;;;11.82;5.15;;;7.80;99.90;;;;;;5081426;28;20498;-76
2022/01/04 08:52:00;;;;;;;7.00;2.58;;;7.80;99.90;;;;;;5110409;27;20050;-76
2022/01/04 08:54:26;;;;;;;11.27;2.40;;;7.70;99.90;;;;;;5109131;27;20041;-76
2022/01/04 08:56:54;;;;;;;6.55;1.85;;;7.60;99.90;;;;;;5082166;28;20118;-76
2022/01/04 08:59:20;;;;;;;7.72;1.25;;;7.60;99.90;;;;;;5077605;28;20150;-76
2022/01/04 09:01:45;;;;;;;6.82;1.20;;;7.50;99.90;;;;;;5079977;28;20413;-76
2022/01/04 09:04:11;;;;;;;7.05;1.08;;;7.50;99.90;;;;;;5077831;28;20051;-76
2022/01/04 09:06:37;;;;;;;2.90;1.08;;;7.50;99.90;;;;;;5081844;28;20067;-76
2022/01/04 09:09:04;;;;;;;7.75;1.02;;;7.40;99.90;;;;;;5077818;28;20044;-76
2022/01/04 09:11:29;;;;;;;3.35;1.00;;;7.50;99.90;;;;;;5080562;28;20135;-76
2022/01/04 09:14:10;;;;;;;6.05;0.90;;;7.50;99.90;;;;;;5078618;28;21611;-76
2022/01/04 09:19:22;;;;;;;6.40;1.65;;;7.50;99.90;;;;;;5079013;28;20041;-76
2022/01/04 09:21:48;;;;;;;9.00;1.02;;;7.50;99.90;;;;;;5081601;28;20475;-76
2022/01/04 09:24:14;;;;;;;10.52;1.50;;;7.50;99.90;;;;;;5084711;28;20043;-76
2022/01/04 09:26:39;;;;;;;9.10;1.30;;;7.50;99.90;;;;;;5082830;28;20088;-76
2022/01/04 09:29:05;;;;;;;9.80;1.35;;;7.50;99.90;;;;;;5078984;28;20169;-76
2022/01/04 09:31:31;;;;;;;9.55;1.33;;;7.50;99.90;;;;;;5080058;28;20406;-76
2022/01/04 09:33:59;;;;;;;12.88;1.88;;;7.50;99.90;;;;;;5080632;28;20043;-76
2022/01/04 09:36:29;;;;;;;13.52;1.90;;;7.60;99.90;;;;;;5116008;27;20051;-76
2022/01/04 09:38:56;;;;;;;18.02;2.95;;;7.60;99.90;;;;;;5110899;27;20422;-76
2022/01/04 09:41:23;;;;;;;12.73;2.85;;;7.60;99.90;;;;;;5077050;28;20037;-76
2022/01/04 09:43:50;;;;;;;13.75;3.45;;;7.70;99.90;;;;;;5081164;28;20089;-76
2022/01/04 09:46:15;;;;;;;13.40;4.30;;;7.70;99.90;;;;;;5079572;28;20072;-77
2022/01/04 09:48:41;;;;;;;15.68;4.32;;;7.70;99.90;;;;;;5077420;28;20498;-77
2022/01/04 09:51:10;;;;;;;19.35;5.13;;;8.00;99.90;;;;;;5082178;28;20390;-75
2022/01/04 09:53:36;;;;;;;21.00;5.43;;;7.80;99.90;;;;;;5082325;28;20051;-75
2022/01/04 09:56:03;;;;;;;12.05;4.00;;;7.80;99.90;;;;;;5077537;28;20105;-75
2022/01/04 09:58:29;;;;;;;13.23;3.28;;;7.80;99.90;;;;;;5084737;28;20083;-75
2022/01/04 10:00:55;;;;;;;12.55;4.15;;;7.80;99.90;;;;;;5103609;27;20068;-75
2022/01/04 10:03:28;;;;;;;15.13;5.00;;;7.80;99.90;;;;;;5078613;28;20044;-76
2022/01/04 10:06:20;;;;;;;15.45;4.05;;;7.80;99.90;;;;;;5083635;28;20078;-76
2022/01/04 10:08:53;;;;;;;15.23;2.80;;;7.80;99.90;;;;;;5075693;28;20051;-75
2022/01/04 10:11:28;;;;;;;10.13;2.50;;;7.80;99.90;;;;;;5077238;28;20085;-75
2022/01/04 10:13:54;;;;;;;;;;;7.70;99.90;;;;;;5084556;28;20085;-75
2022/01/04 10:16:20;;;;;;;8.90;1.92;;;7.70;99.90;;;;;;5112310;27;19924;-75
2022/01/04 10:18:49;;;;;;;13.68;2.30;;;7.70;99.90;;;;;;5076097;28;20032;-75
2022/01/04 10:21:16;;;;;;;13.32;2.03;;;7.60;99.90;;;;;;5078695;28;20074;-74
2022/01/04 10:23:56;;;;;;;4.45;0.60;;;7.60;99.90;;;;;;5108661;27;20041;-75
2022/01/04 10:26:37;;;;;;;2.90;1.02;;;7.60;99.90;;;;;;5112927;27;20401;-75
2022/01/04 10:29:23;;;;;;;6.25;0.60;;;7.60;99.90;;;;;;5077317;28;20040;-75
2022/01/04 10:31:51;;;;;;;3.08;0.47;;;7.50;99.90;;;;;;5079256;28;20076;-76
2022/01/04 10:34:16;;;;;;;2.95;0.38;;;7.50;99.90;;;;;;5077468;28;20047;-76
2022/01/04 10:36:44;;;;;;;2.78;0.52;;;7.50;99.90;;;;;;5078066;28;20037;-76
2022/01/04 10:39:10;;;;;;;3.90;0.40;;;7.50;99.90;;;;;;5077546;28;20036;-75
2022/01/04 10:41:36;;;;;;;7.05;0.40;;;7.40;99.90;;;;;;5078764;28;20560;-76
2022/01/04 10:44:09;;;;;;;5.13;0.63;;;7.40;99.90;;;;;;5077807;28;20135;-76
2022/01/04 10:46:43;;;;;;;2.42;0.40;;;7.40;99.90;;;;;;5083191;28;20074;-76
2022/01/04 10:49:24;;;;;;;4.80;0.50;;;7.40;99.90;;;;;;5076940;28;20056;-76
2022/01/04 10:52:12;;;;;;;5.20;0.65;;;7.30;99.90;;;;;;5076415;28;20054;-75
2022/01/04 10:54:38;;;;;;;5.13;0.50;;;7.30;99.90;;;;;;5109588;27;20044;-76
2022/01/04 10:57:09;;;;;;;4.63;0.40;;;7.30;99.90;;;;;;5078085;28;20044;-75
2022/01/04 10:59:36;;;;;;;4.07;0.88;;;7.30;99.90;;;;;;5077734;28;20032;-75
2022/01/04 11:02:02;;;;;;;3.17;0.50;;;7.30;99.90;;;;;;5078944;28;20399;-76
2022/01/04 11:04:27;;;;;;;4.07;0.93;;;7.20;99.90;;;;;;5079049;28;20193;-76
2022/01/04 11:07:01;;;;;;;2.30;0.45;;;7.10;99.90;;;;;;5078279;28;20127;-75
2022/01/04 11:09:29;;;;;;;5.78;1.25;;;7.10;99.90;;;;;;5077231;28;20439;-75
2022/01/04 11:11:54;;;;;;;8.57;2.05;;;7.00;99.90;;;;;;5058699;28;20506;-75
2022/01/04 11:14:21;;;;;;;5.45;0.68;;;7.00;99.90;;;;;;5078936;28;20048;-76
2022/01/04 11:16:47;;;;;;;8.02;0.68;;;7.00;99.90;;;;;;5078152;28;20462;-76
2022/01/04 11:19:13;;;;;;;6.20;0.50;;;7.00;99.90;;;;;;5077803;28;20503;-76
2022/01/04 11:21:41;;;;;;;4.30;0.70;;;7.00;99.90;;;;;;5077854;28;20040;-76
2022/01/04 11:24:12;;;;;;;3.40;0.30;;;6.90;99.90;;;;;;5078800;28;20071;-76
2022/01/04 11:26:43;;;;;;;1.63;0.43;;;6.90;99.90;;;;;;5077107;28;20521;-76
2022/01/04 11:29:09;;;;;;;2.33;0.30;;;6.80;99.90;;;;;;5081592;28;20058;-76
2022/01/04 11:31:44;;;;;;;4.18;0.30;;;6.70;99.90;;;;;;5087430;28;20487;-76
2022/01/04 11:34:15;;;;;;;2.15;0.20;;;6.70;99.90;;;;;;5110874;27;20039;-76
2022/01/04 11:36:44;;;;;;;2.33;0.75;;;6.60;99.90;;;;;;5076554;28;20081;-76
2022/01/04 11:39:39;;;;;;;4.63;0.35;;;6.60;99.90;;;;;;5078320;28;20032;-76
2022/01/04 11:42:35;;;;;;;2.30;0.30;;;6.60;99.90;;;;;;5092927;28;20075;-76
2022/01/04 11:45:04;;;;;;;5.25;0.25;;;6.60;99.90;;;;;;5071539;28;20090;-76
2022/01/04 11:47:32;;;;;;;5.07;0.40;;;6.60;99.90;;;;;;5076078;28;20078;-76
2022/01/04 11:50:20;;;;;;;2.83;0.40;;;6.60;99.90;;;;;;5078331;28;20044;-76
2022/01/04 11:52:58;;;;;;;5.43;0.30;;;6.60;99.90;;;;;;5078620;28;20143;-76
2022/01/04 11:55:36;;;;;;;4.72;0.47;;;6.50;99.90;;;;;;5078786;28;20047;-76
2022/01/04 11:58:13;;;;;;;2.30;0.30;;;6.60;99.90;;;;;;5074083;28;20044;-76
2022/01/04 12:00:44;;;;;;;4.47;0.30;;;6.50;99.90;;;;;;5115127;27;20354;-76
2022/01/04 12:03:20;;;;;;;4.53;0.40;;;6.50;99.90;;;;;;5082183;28;20040;-76
2022/01/04 12:05:54;;;;;;;3.20;0.60;;;6.40;99.90;;;;;;5078942;28;20159;-76
2022/01/04 12:08:22;;;;;;;5.88;1.73;;;6.40;99.90;;;;;;5084353;28;20399;-76
2022/01/04 12:10:53;;;;;;;6.15;0.60;;;6.20;99.90;;;;;;5083869;28;20137;-76
2022/01/04 12:13:23;;;;;;;3.67;0.32;;;6.20;99.90;;;;;;5081724;28;20046;-76
2022/01/04 12:15:58;;;;;;;2.50;0.25;;;6.20;99.90;;;;;;5077291;28;20048;-75
2022/01/04 12:18:23;;;;;;;3.53;0.20;;;6.20;99.90;;;;;;5080107;28;20048;-76
2022/01/04 12:20:52;;;;;;;3.65;0.50;;;6.20;99.90;;;;;;5084289;28;20636;-76
2022/01/04 12:23:27;;;;;;;2.22;0.30;;;6.10;99.90;;;;;;5083906;28;20097;-76
2022/01/04 12:28:38;;;;;;;1.73;0.20;;;6.10;99.90;;;;;;5081034;28;20044;-76
2022/01/04 12:31:25;;;;;;;4.38;0.28;;;6.10;99.90;;;;;;5078674;28;20090;-76
2022/01/04 12:33:56;;;;;;;7.20;0.50;;;6.10;99.90;;;;;;5078330;28;20502;-76
2022/01/04 12:36:28;;;;;;;7.93;0.40;;;6.20;99.90;;;;;;5080424;28;20090;-76
2022/01/04 12:38:56;;;;;;;4.03;0.38;;;6.20;99.90;;;;;;5083651;28;20042;-76
2022/01/04 12:41:22;;;;;;;7.68;0.30;;;6.20;99.90;;;;;;5076672;28;20596;-76
2022/01/04 12:43:50;;;;;;;5.38;0.30;;;6.30;99.90;;;;;;5082369;28;20038;-76
2022/01/04 12:46:26;;;;;;;4.95;0.68;;;6.30;99.90;;;;;;5082317;28;20037;-76
2022/01/04 12:48:56;;;;;;;3.40;0.47;;;6.30;99.90;;;;;;5078157;28;20123;-76
2022/01/04 12:51:25;;;;;;;5.72;0.60;;;6.30;99.90;;;;;;5097041;27;20040;-76
2022/01/04 12:53:59;;;;;;;4.03;0.35;;;6.40;99.90;;;;;;5080697;28;20055;-76
2022/01/04 12:56:26;;;;;;;4.60;0.50;;;6.50;99.90;;;;;;5083027;28;20085;-76